Terminal Aerodrome Forecast
Issued by NWS

Home | Current Version | Previous Version | Text Only | Print | Product List | Glossary On
Versions: 1 2 3 4 5 6 7 8 9 10 11 12 13 14 15 16 17
000
FTUS45 KTFX 260500
TAFLWT
TAF
KLWT 260539Z 2606/2706 VRB06KT P6SM SCT100 BKN150
     FM260800 20007KT P6SM SCT060 BKN100
     FM261100 30010KT P6SM VCSH SCT020 OVC035
      TEMPO 2613/2617 32010G20KT 2SM -SN BR BKN010
     FM262000 28007KT P6SM SCT030 BKN050
     FM270000 22008KT P6SM SKC=

USA.gov is the U.S. government's official web portal to all federal, state and local government web resources and services.